Decoded Metar for LYVR (VRSAC in SERBIA) (IATA:N/A) | Meteo·Mobile Aviation Weather
aviador You're here:

LYVR Decoded Metar

VRSAC in SERBIA
Report Time2018-10-17 19:30:00
UTC Time2018-10-17 20:04:39
Flight Rules vfr VFR
Wind040° at 04 kt
W.Decomp.*RWY 01: 3.6 kt HW 1.8 kt RCW
RWY 34: 2.2 kt HW 3.4 kt RCW
W.Rank040° ranks 5
Current wind is below 040° avg. (4.2)
Visibility9999 m
Phenomena:N/A
Clouds:N/A
Expected CloudBase > 3,600 ft AGL from Temp-Dew spread
CeilingNone
Temp13°C (ISA -1)
Dew Point04°C (55% RH)
AAT10.3°C
QNH1020 hPa
Density Alt-16 ft
Elevation279 ft
Report Wrong Elevation
Raw Report
METAR LYVR 171930Z 04004KT 010V070 CAVOK 13/04 Q1020 NOSIG=

Extra information for LYVR:More info

Metar Taf Metar & Taf Last 4 Metars F.Rules Stats Wind Profile Meteogram Temp Stats Airport Information Weather charts Add Link Nearby VenuesMetar ALERT Operation Metar Decoded Social comments